createdAt,value
2019-06-10T00:02:24.367Z,6.47
2019-06-10T00:04:53.939Z,8.03
2019-06-10T00:07:23.269Z,5.35
2019-06-10T00:09:52.569Z,6.60
2019-06-10T00:12:21.893Z,7.12
2019-06-10T00:14:51.254Z,11.38
2019-06-10T00:17:21.376Z,13.13
2019-06-10T00:19:51.234Z,5.87
2019-06-10T00:22:21.538Z,5.67
2019-06-10T00:24:52.190Z,7.33
2019-06-10T00:27:21.764Z,6.65
2019-06-10T00:29:51.376Z,5.40
2019-06-10T00:32:21.542Z,13.45
2019-06-10T00:34:51.093Z,6.83
2019-06-10T00:37:21.159Z,5.30
2019-06-10T00:39:51.226Z,6.70
2019-06-10T00:42:21.614Z,10.40
2019-06-10T00:44:51.072Z,4.53
2019-06-10T00:47:21.489Z,8.90
2019-06-10T00:49:51.430Z,4.30
2019-06-10T00:52:21.372Z,10.10
2019-06-10T00:54:51.945Z,7.97
2019-06-10T00:57:21.314Z,6.15
2019-06-10T00:59:50.845Z,6.30
2019-06-10T01:02:21.332Z,10.03
2019-06-10T01:04:52.140Z,7.55
2019-06-10T01:07:21.930Z,10.03
2019-06-10T01:09:51.703Z,4.95
2019-06-10T01:12:21.361Z,7.12
2019-06-10T01:14:51.728Z,8.45
2019-06-10T01:17:21.369Z,4.03
2019-06-10T01:20:16.143Z,4.12
2019-06-10T01:22:46.173Z,5.70
2019-06-10T01:25:15.513Z,8.18
2019-06-10T01:27:44.821Z,6.42
2019-06-10T01:30:21.743Z,5.60
2019-06-10T01:32:45.089Z,6.58
2019-06-10T01:35:15.736Z,6.78
2019-06-10T01:37:45.456Z,5.15
2019-06-10T01:40:17.651Z,5.30
2019-06-10T01:42:45.832Z,8.55
2019-06-10T01:45:16.120Z,5.90
2019-06-10T01:47:46.104Z,10.88
2019-06-10T01:50:17.343Z,9.20
2019-06-10T01:52:46.569Z,5.12
2019-06-10T01:55:17.008Z,6.95
2019-06-10T01:57:46.835Z,5.25
2019-06-10T02:00:21.211Z,5.58
2019-06-10T02:02:47.909Z,7.00
2019-06-10T02:05:19.406Z,6.60
2019-06-10T02:07:48.236Z,10.38
2019-06-10T02:10:18.781Z,8.35
2019-06-10T02:12:50.738Z,7.33
2019-06-10T02:15:22.263Z,5.47
2019-06-10T02:17:51.019Z,4.60
2019-06-10T02:20:23.821Z,11.73
2019-06-10T02:22:51.694Z,6.25
2019-06-10T02:25:21.709Z,7.70
2019-06-10T02:27:51.967Z,5.53
2019-06-10T02:30:35.773Z,4.55
2019-06-10T02:32:52.544Z,5.90
2019-06-10T02:35:30.446Z,5.45
2019-06-10T02:37:54.044Z,6.50
2019-06-10T02:40:31.695Z,4.92
2019-06-10T02:42:56.579Z,7.28
2019-06-10T02:45:32.715Z,7.50
2019-06-10T02:47:56.849Z,8.75
2019-06-10T02:50:44.338Z,7.03
2019-06-10T02:53:15.872Z,4.75
2019-06-10T02:55:44.788Z,7.05
2019-06-10T02:58:15.611Z,6.85
2019-06-10T03:00:48.840Z,4.05
2019-06-10T03:03:22.974Z,6.60
2019-06-10T03:05:47.065Z,6.30
2019-06-10T03:08:18.329Z,4.42
2019-06-10T03:10:47.350Z,6.80
2019-06-10T03:13:17.633Z,5.28
2019-06-10T03:15:48.527Z,5.12
2019-06-10T03:18:17.873Z,5.92
2019-06-10T03:20:47.176Z,4.47
2019-06-10T03:23:16.534Z,3.27
2019-06-10T03:25:47.430Z,7.45
2019-06-10T03:28:17.411Z,4.47
2019-06-10T03:30:53.688Z,4.50
2019-06-10T03:33:19.674Z,11.50
2019-06-10T03:35:48.647Z,12.23
2019-06-10T03:38:18.262Z,7.78
2019-06-10T03:40:47.677Z,6.10
2019-06-10T03:43:17.134Z,5.95
2019-06-10T03:45:46.536Z,11.83
2019-06-10T03:48:17.065Z,16.02
2019-06-10T03:50:46.802Z,6.60
2019-06-10T03:53:17.153Z,4.20
2019-06-10T03:55:46.901Z,3.92
2019-06-10T03:58:17.480Z,5.83
2019-06-10T04:00:47.053Z,10.13
2019-06-10T04:03:17.331Z,4.95
2019-06-10T04:05:46.797Z,11.78
2019-06-10T04:08:17.370Z,4.87
2019-06-10T04:10:46.888Z,4.58
2019-06-10T04:13:17.287Z,5.70
2019-06-10T04:15:46.781Z,4.45
2019-06-10T04:18:16.113Z,5.83
2019-06-10T04:20:45.409Z,7.00
2019-06-10T04:23:14.957Z,7.17
2019-06-10T04:25:44.312Z,5.95
2019-06-10T04:28:13.613Z,8.83
2019-06-10T04:30:43.364Z,8.05
2019-06-10T04:33:12.897Z,6.58
2019-06-10T04:35:42.764Z,3.83
2019-06-10T04:38:13.080Z,5.62
2019-06-10T04:40:43.095Z,9.08
2019-06-10T04:43:12.542Z,3.77
2019-06-10T04:45:42.984Z,10.53
2019-06-10T04:48:12.631Z,5.67
2019-06-10T04:50:45.979Z,12.45
2019-06-10T04:53:13.014Z,3.70
2019-06-10T04:55:43.117Z,7.92
2019-06-10T04:58:12.988Z,5.42
2019-06-10T05:00:42.947Z,10.50
2019-06-10T05:03:13.240Z,5.70
2019-06-10T05:05:43.074Z,5.03
2019-06-10T05:08:13.597Z,8.25
2019-06-10T05:10:43.397Z,24.18
2019-06-10T05:13:12.694Z,15.35
2019-06-10T05:15:43.367Z,10.30
2019-06-10T05:18:13.956Z,6.75
2019-06-10T05:20:52.081Z,2.87
2019-06-10T05:23:14.442Z,6.15
2019-06-10T05:25:43.753Z,6.10
2019-06-10T05:28:13.054Z,7.70
2019-06-10T05:30:42.722Z,7.05
2019-06-10T05:33:13.463Z,4.55
2019-06-10T05:35:43.105Z,7.85
2019-06-10T05:38:12.964Z,5.78
2019-06-10T05:40:42.807Z,3.90
2019-06-10T05:43:13.038Z,4.08
2019-06-10T05:45:42.738Z,3.58
2019-06-10T05:48:16.233Z,4.45
2019-06-10T05:51:00.087Z,12.25
2019-06-10T05:53:22.586Z,12.78
2019-06-10T05:55:52.986Z,7.05
2019-06-10T05:58:23.528Z,3.65
2019-06-10T06:00:53.226Z,4.60
2019-06-10T06:03:24.150Z,4.80
2019-06-10T06:05:54.776Z,3.90
2019-06-10T06:08:25.106Z,12.28
2019-06-10T06:10:54.514Z,4.45
2019-06-10T06:13:23.832Z,4.22
2019-06-10T06:15:53.165Z,14.18
2019-06-10T06:18:22.672Z,5.65
2019-06-10T06:20:52.617Z,6.72
2019-06-10T06:23:23.124Z,3.20
2019-06-10T06:25:53.270Z,12.50
2019-06-10T06:28:23.020Z,3.77
2019-06-10T06:30:52.832Z,3.80
2019-06-10T06:33:22.460Z,7.25
2019-06-10T06:35:52.962Z,5.03
2019-06-10T06:38:22.478Z,5.47
2019-06-10T06:40:53.749Z,5.12
2019-06-10T06:43:23.124Z,13.85
2019-06-10T06:45:53.143Z,11.53
2019-06-10T06:48:22.804Z,9.60
2019-06-10T06:51:04.062Z,7.83
2019-06-10T06:53:32.397Z,5.28
2019-06-10T06:55:56.011Z,9.43
2019-06-10T06:58:25.007Z,8.63
2019-06-10T07:01:05.207Z,7.60
2019-06-10T07:03:25.285Z,7.53
2019-06-10T07:05:54.632Z,4.22
2019-06-10T07:08:25.397Z,4.83
2019-06-10T07:10:55.396Z,5.12
2019-06-10T07:13:26.233Z,18.67
2019-06-10T07:15:55.616Z,5.20
2019-06-10T07:18:24.998Z,13.13
2019-06-10T07:20:54.302Z,3.33
2019-06-10T07:23:23.654Z,6.08
2019-06-10T07:25:53.284Z,3.35
2019-06-10T07:28:23.073Z,3.62
2019-06-10T07:30:55.242Z,5.35
2019-06-10T07:33:23.621Z,5.00
2019-06-10T07:35:56.419Z,6.80
2019-06-10T07:38:26.231Z,5.70
2019-06-10T07:40:54.841Z,10.63
2019-06-10T07:43:24.198Z,2.55
2019-06-10T07:45:53.538Z,21.35
2019-06-10T07:48:22.822Z,5.25
2019-06-10T07:50:53.205Z,4.78
2019-06-10T07:53:22.786Z,7.03
2019-06-10T07:55:53.560Z,5.30
2019-06-10T07:58:23.253Z,5.47
2019-06-10T08:00:53.486Z,5.95
2019-06-10T08:03:23.120Z,4.00
2019-06-10T08:05:52.680Z,6.58
2019-06-10T08:08:23.522Z,8.63
2019-06-10T08:10:53.109Z,7.95
2019-06-10T08:13:22.694Z,4.97
2019-06-10T08:15:53.281Z,3.87
2019-06-10T08:18:22.730Z,7.17
2019-06-10T08:20:52.846Z,5.37
2019-06-10T08:23:23.590Z,5.05
2019-06-10T08:25:57.617Z,3.42
2019-06-10T08:28:25.224Z,11.68
2019-06-10T08:30:54.585Z,3.12
2019-06-10T08:33:23.898Z,6.55
2019-06-10T08:35:59.527Z,7.37
2019-06-10T08:38:25.549Z,5.10
2019-06-10T08:40:54.912Z,6.12
2019-06-10T08:43:24.215Z,7.65
2019-06-10T08:45:53.549Z,4.65
2019-06-10T08:48:23.084Z,8.58
2019-06-10T08:50:53.466Z,5.78
2019-06-10T08:53:22.992Z,4.28
2019-06-10T08:55:53.466Z,4.70
2019-06-10T08:58:24.462Z,4.90
2019-06-10T09:00:53.998Z,5.62
2019-06-10T09:03:23.584Z,2.90
2019-06-10T09:05:55.213Z,5.33
2019-06-10T09:08:25.065Z,6.00
2019-06-10T09:10:55.402Z,5.00
2019-06-10T09:13:24.927Z,9.85
2019-06-10T09:16:10.085Z,10.53
2019-06-10T09:18:26.188Z,5.87
2019-06-10T09:20:56.291Z,9.30
2019-06-10T09:23:25.888Z,5.08
2019-06-10T09:25:57.824Z,5.20
2019-06-10T09:28:29.100Z,6.67
2019-06-10T09:30:59.660Z,4.47
2019-06-10T09:33:29.568Z,8.95
2019-06-10T09:35:58.881Z,6.33
2019-06-10T09:38:28.239Z,6.42
2019-06-10T09:41:01.635Z,8.78
2019-06-10T09:43:28.509Z,7.45
2019-06-10T09:45:57.833Z,8.50
2019-06-10T09:48:27.239Z,15.83
2019-06-10T09:50:58.750Z,9.48
2019-06-10T09:53:41.414Z,11.88
2019-06-10T09:55:58.567Z,7.35
2019-06-10T09:58:27.902Z,6.22
2019-06-10T10:00:58.344Z,8.68
2019-06-10T10:03:27.950Z,6.30
2019-06-10T10:06:10.083Z,8.70
2019-06-10T10:08:29.117Z,28.05
2019-06-10T10:10:59.234Z,10.08
2019-06-10T10:13:28.823Z,15.50
2019-06-10T10:15:58.509Z,18.82
2019-06-10T10:18:27.825Z,10.82
2019-06-10T10:21:00.296Z,17.37
2019-06-10T10:23:28.125Z,17.90
2019-06-10T10:25:57.436Z,11.80
2019-06-10T10:28:26.755Z,10.48
2019-06-10T10:30:58.107Z,24.80
2019-06-10T10:33:29.908Z,8.98
2019-06-10T10:35:57.975Z,20.12
2019-06-10T10:38:27.300Z,12.55
2019-06-10T10:40:59.105Z,13.35
2019-06-10T10:43:33.147Z,14.75
2019-06-10T10:46:00.551Z,14.73
2019-06-10T10:48:29.629Z,10.32
2019-06-10T10:50:58.938Z,9.30
2019-06-10T10:53:28.252Z,19.02
2019-06-10T10:55:57.557Z,16.42
2019-06-10T10:58:26.926Z,11.35
2019-06-10T11:00:57.848Z,9.40
2019-06-10T11:03:27.176Z,15.48
2019-06-10T11:06:00.694Z,20.20
2019-06-10T11:08:27.436Z,9.43
2019-06-10T11:11:01.115Z,13.32
2019-06-10T11:13:32.696Z,12.07
2019-06-10T11:16:03.542Z,19.50
2019-06-10T11:18:33.935Z,12.63
2019-06-10T11:21:05.159Z,15.55
2019-06-10T11:23:34.734Z,13.58
2019-06-10T11:26:04.779Z,9.98
2019-06-10T11:28:34.094Z,15.72
2019-06-10T11:31:04.024Z,15.15
2019-06-10T11:33:34.051Z,19.62
2019-06-10T11:36:03.676Z,16.77
2019-06-10T11:38:34.072Z,13.03
2019-06-10T11:41:04.248Z,19.05
2019-06-10T11:43:33.573Z,15.55
2019-06-10T11:46:07.806Z,12.73
2019-06-10T11:48:35.744Z,12.73
2019-06-10T11:51:05.151Z,15.65
2019-06-10T11:53:34.695Z,11.22
2019-06-10T11:56:04.965Z,11.70
2019-06-10T11:58:34.323Z,17.45
2019-06-10T12:01:04.248Z,12.82
2019-06-10T12:03:35.006Z,17.52
2019-06-10T12:06:05.343Z,25.25
2019-06-10T12:08:35.059Z,17.75
2019-06-10T12:11:04.370Z,28.20
2019-06-10T12:13:34.662Z,17.37
2019-06-10T12:17:14.762Z,12.33
2019-06-10T12:18:36.360Z,17.32
2019-06-10T12:21:05.712Z,15.40
2019-06-10T12:23:35.038Z,13.50
2019-06-10T12:26:05.226Z,17.07
2019-06-10T12:28:34.881Z,23.20
2019-06-10T12:31:07.156Z,12.50
2019-06-10T12:33:35.369Z,18.55
2019-06-10T12:36:07.158Z,17.48
2019-06-10T12:38:36.033Z,21.15
2019-06-10T12:41:09.711Z,15.65
2019-06-10T12:43:36.294Z,11.60
2019-06-10T12:46:05.996Z,15.95
2019-06-10T12:48:35.326Z,24.20
2019-06-10T12:51:08.845Z,16.75
2019-06-10T12:53:36.929Z,16.90
2019-06-10T12:56:10.685Z,14.85
2019-06-10T12:58:37.184Z,13.08
2019-06-10T13:01:08.058Z,15.18
2019-06-10T13:03:38.752Z,17.87
2019-06-10T13:06:09.804Z,15.50
2019-06-10T13:08:38.988Z,16.10
2019-06-10T13:11:08.441Z,16.87
2019-06-10T13:13:37.745Z,15.18
2019-06-10T13:16:09.199Z,10.80
2019-06-10T13:18:38.025Z,13.05
2019-06-10T13:21:13.382Z,18.05
2019-06-10T13:23:38.320Z,58.17
2019-06-10T13:26:12.552Z,19.15
2019-06-10T13:28:38.625Z,17.95
2019-06-10T13:31:10.065Z,12.30
2019-06-10T13:33:39.092Z,14.30
2019-06-10T13:36:08.765Z,14.95
2019-06-10T13:38:38.223Z,25.48
2019-06-10T13:41:09.584Z,13.93
2019-06-10T13:43:38.890Z,15.60
2019-06-10T13:46:10.489Z,20.37
2019-06-10T13:48:39.165Z,12.45
2019-06-10T13:51:10.999Z,15.53
2019-06-10T13:53:39.441Z,15.63
2019-06-10T13:56:37.041Z,15.50
2019-06-10T13:58:45.073Z,19.75
2019-06-10T14:01:20.504Z,19.73
2019-06-10T14:03:43.266Z,17.48
2019-06-10T14:06:28.393Z,12.15
2019-06-10T14:08:43.814Z,20.10
2019-06-10T14:11:14.264Z,22.75
2019-06-10T14:13:44.234Z,10.53
2019-06-10T14:16:14.887Z,15.18
2019-06-10T14:18:44.529Z,13.60
2019-06-10T14:21:18.276Z,14.23
2019-06-10T14:23:44.852Z,19.20
2019-06-10T14:26:17.162Z,20.32
2019-06-10T14:28:47.408Z,14.00
2019-06-10T14:31:38.668Z,16.25
2019-06-10T14:33:47.682Z,10.25
2019-06-10T14:36:17.103Z,18.95
2019-06-10T14:38:46.453Z,16.12
2019-06-10T14:41:15.906Z,18.98
2019-06-10T14:43:45.282Z,22.10
2019-06-10T14:46:17.188Z,11.30
2019-06-10T14:48:45.586Z,15.13
2019-06-10T14:51:16.858Z,16.90
2019-06-10T14:53:45.863Z,14.95
2019-06-10T14:56:18.977Z,16.37
2019-06-10T14:58:46.114Z,21.27
2019-06-10T15:01:24.419Z,14.00
2019-06-10T15:03:46.378Z,23.15
2019-06-10T15:06:15.716Z,16.25
2019-06-10T15:08:45.045Z,17.80
2019-06-10T15:11:15.774Z,24.15
2019-06-10T15:13:45.525Z,18.95
2019-06-10T15:16:14.828Z,18.70
2019-06-10T15:18:44.176Z,13.68
2019-06-10T15:21:13.557Z,22.67
2019-06-10T15:23:43.075Z,13.68
2019-06-10T15:26:14.391Z,14.83
2019-06-10T15:28:43.521Z,18.07
2019-06-10T15:31:14.586Z,13.00
2019-06-10T15:33:43.785Z,22.77
2019-06-10T15:36:13.249Z,17.70
2019-06-10T15:38:44.019Z,21.67
2019-06-10T15:41:17.856Z,14.68
2019-06-10T15:43:44.845Z,23.75
2019-06-10T15:46:15.867Z,16.07
2019-06-10T15:48:45.175Z,13.15
2019-06-10T15:51:17.456Z,14.90
2019-06-10T15:53:45.553Z,18.12
2019-06-10T15:56:27.019Z,18.53
2019-06-10T15:58:47.320Z,20.63
2019-06-10T16:01:20.309Z,27.50
2019-06-10T16:03:47.615Z,15.30
2019-06-10T16:06:18.118Z,14.93
2019-06-10T16:08:47.477Z,22.00
2019-06-10T16:11:18.866Z,22.73
2019-06-10T16:13:47.734Z,14.57
2019-06-10T16:16:17.308Z,17.00
2019-06-10T16:18:46.604Z,18.87
2019-06-10T16:21:17.434Z,25.33
2019-06-10T16:23:46.892Z,16.93
2019-06-10T16:26:16.298Z,16.80
2019-06-10T16:28:45.710Z,20.10
2019-06-10T16:31:16.615Z,24.27
2019-06-10T16:33:49.219Z,16.50
2019-06-10T16:36:17.203Z,22.83
2019-06-10T16:38:46.861Z,14.37
2019-06-10T16:41:17.439Z,16.07
2019-06-10T16:43:47.926Z,13.17
2019-06-10T16:46:18.203Z,19.07
2019-06-10T16:48:47.785Z,17.80
2019-06-10T16:51:17.439Z,15.93
2019-06-10T16:53:48.022Z,20.23
2019-06-10T16:56:17.749Z,14.50
2019-06-10T16:58:47.530Z,15.50
2019-06-10T17:01:18.243Z,24.07
2019-06-10T17:03:47.892Z,10.47
2019-06-10T17:06:17.472Z,22.63
2019-06-10T17:08:47.006Z,24.70
2019-06-10T17:11:16.336Z,20.08
2019-06-10T17:13:45.653Z,11.40
2019-06-10T17:16:14.992Z,15.80
2019-06-10T17:18:44.298Z,8.37
2019-06-10T17:21:13.693Z,12.75
2019-06-10T17:23:43.393Z,38.90
2019-06-10T17:26:13.053Z,17.60
2019-06-10T17:28:42.952Z,9.70
2019-06-10T17:31:12.591Z,9.60
2019-06-10T17:33:42.687Z,10.60
2019-06-10T17:36:12.711Z,8.17
2019-06-10T17:38:42.977Z,14.03
2019-06-10T17:41:15.730Z,17.43
2019-06-10T17:43:45.067Z,11.67
2019-06-10T17:46:15.954Z,20.67
2019-06-10T17:48:45.317Z,23.25
2019-06-10T17:51:14.625Z,26.77
2019-06-10T17:53:44.435Z,11.57
2019-06-10T17:56:13.736Z,11.57
2019-06-10T17:58:52.595Z,12.23
2019-06-10T18:01:15.049Z,13.47
2019-06-10T18:03:44.473Z,14.33
2019-06-10T18:06:13.840Z,12.20
2019-06-10T18:08:43.632Z,19.20
2019-06-10T18:11:13.367Z,19.37
2019-06-10T18:13:43.155Z,15.57
2019-06-10T18:16:13.084Z,26.77
2019-06-10T18:18:43.817Z,12.58
2019-06-10T18:21:13.146Z,16.48
2019-06-10T18:23:43.490Z,11.63
2019-06-10T18:26:13.229Z,12.82
2019-06-10T18:29:00.223Z,15.17
2019-06-10T18:31:13.538Z,23.05
2019-06-10T18:33:42.880Z,21.83
2019-06-10T18:36:12.300Z,17.48
2019-06-10T18:38:43.303Z,15.05
2019-06-10T18:41:12.925Z,13.32
2019-06-10T18:43:43.996Z,18.85
2019-06-10T18:46:13.361Z,23.02
2019-06-10T18:48:43.114Z,22.82
2019-06-10T18:51:12.886Z,17.50
2019-06-10T18:53:42.745Z,19.65
2019-06-10T18:56:13.015Z,11.75
2019-06-10T18:58:42.642Z,13.93
2019-06-10T19:01:12.586Z,21.37
2019-06-10T19:03:43.050Z,13.45
2019-06-10T19:06:13.718Z,17.95
2019-06-10T19:08:44.259Z,17.75
2019-06-10T19:11:14.135Z,12.68
2019-06-10T19:13:43.759Z,20.60
2019-06-10T19:16:13.288Z,10.38
2019-06-10T19:18:43.351Z,17.98
2019-06-10T19:21:13.280Z,20.82
2019-06-10T19:23:43.889Z,17.70
2019-06-10T19:26:13.975Z,22.25
2019-06-10T19:28:45.104Z,22.87
2019-06-10T19:31:14.262Z,20.55
2019-06-10T19:33:45.152Z,19.02
2019-06-10T19:36:14.591Z,21.05
2019-06-10T19:38:44.383Z,20.10
2019-06-10T19:41:14.220Z,16.20
2019-06-10T19:43:45.510Z,12.25
2019-06-10T19:46:14.961Z,20.27
2019-06-10T19:48:55.388Z,18.35
2019-06-10T19:51:15.330Z,22.60
2019-06-10T19:53:45.126Z,24.30
2019-06-10T19:56:14.619Z,13.20
2019-06-10T19:58:46.344Z,17.35
2019-06-10T20:01:15.281Z,27.05
2019-06-10T20:03:46.468Z,18.02
2019-06-10T20:06:15.661Z,15.72
2019-06-10T20:08:46.187Z,29.55
2019-06-10T20:11:15.921Z,23.73
2019-06-10T20:13:46.772Z,35.90
2019-06-10T20:16:16.429Z,20.62
2019-06-10T20:18:47.830Z,14.60
2019-06-10T20:21:16.806Z,23.95
2019-06-10T20:23:46.139Z,13.55
2019-06-10T20:26:15.454Z,18.75
2019-06-10T20:28:46.401Z,19.55
2019-06-10T20:31:16.943Z,23.42
2019-06-10T20:33:46.277Z,16.00
2019-06-10T20:36:22.032Z,18.77
2019-06-10T20:38:48.687Z,18.25
2019-06-10T20:41:17.708Z,27.65
2019-06-10T20:43:47.391Z,22.75
2019-06-10T20:46:16.870Z,22.22
2019-06-10T20:48:49.427Z,25.50
2019-06-10T20:51:17.160Z,16.23
2019-06-10T20:53:47.963Z,16.70
2019-06-10T20:56:20.216Z,25.50
2019-06-10T20:58:49.722Z,22.13
2019-06-10T21:01:19.458Z,18.23
2019-06-10T21:03:49.871Z,15.28
2019-06-10T21:06:22.483Z,18.02
2019-06-10T21:08:55.087Z,16.12
2019-06-10T21:11:24.401Z,22.93
2019-06-10T21:13:55.716Z,17.85
2019-06-10T21:16:24.743Z,16.45
2019-06-10T21:18:55.521Z,22.35
2019-06-10T21:21:25.103Z,13.90
2019-06-10T21:23:54.399Z,15.18
2019-06-10T21:26:23.926Z,21.52
2019-06-10T21:28:55.102Z,21.55
2019-06-10T21:31:25.657Z,15.93
2019-06-10T21:33:56.003Z,16.73
2019-06-10T21:36:25.608Z,14.23
2019-06-10T21:38:55.939Z,14.33
2019-06-10T21:41:25.467Z,18.62
2019-06-10T21:43:59.315Z,16.23
2019-06-10T21:46:26.871Z,25.35
2019-06-10T21:48:56.985Z,18.48
2019-06-10T21:51:26.301Z,22.10
2019-06-10T21:53:55.676Z,16.45
2019-06-10T21:56:25.002Z,17.75
2019-06-10T21:58:55.630Z,25.35
2019-06-10T22:01:25.255Z,21.27
2019-06-10T22:04:00.568Z,22.52
2019-06-10T22:06:25.581Z,17.20
2019-06-10T22:08:56.501Z,24.52
2019-06-10T22:11:25.837Z,17.85
2019-06-10T22:13:56.325Z,34.90
2019-06-10T22:16:26.032Z,17.25
2019-06-10T22:18:55.405Z,32.83
2019-06-10T22:21:24.709Z,20.75
2019-06-10T22:23:55.673Z,16.12
2019-06-10T22:26:25.012Z,14.35
2019-06-10T22:28:56.241Z,18.17
2019-06-10T22:31:26.486Z,13.53
2019-06-10T22:33:57.615Z,17.27
2019-06-10T22:36:27.262Z,20.37
2019-06-10T22:38:59.010Z,21.52
2019-06-10T22:41:27.541Z,23.18
2019-06-10T22:43:59.819Z,12.55
2019-06-10T22:46:29.370Z,24.10
2019-06-10T22:48:59.468Z,16.23
2019-06-10T22:51:29.138Z,25.23
2019-06-10T22:54:00.003Z,16.65
2019-06-10T22:56:30.696Z,24.65
2019-06-10T22:59:03.346Z,17.02
2019-06-10T23:01:37.841Z,19.80
2019-06-10T23:04:04.213Z,19.73
2019-06-10T23:06:34.071Z,19.17
2019-06-10T23:09:04.410Z,13.80
2019-06-10T23:11:34.437Z,17.42
2019-06-10T23:14:03.741Z,13.13
2019-06-10T23:16:33.364Z,13.83
2019-06-10T23:19:03.114Z,25.50
2019-06-10T23:21:32.450Z,14.78
2019-06-10T23:24:03.151Z,12.93
2019-06-10T23:26:33.265Z,19.50
2019-06-10T23:29:03.306Z,10.75
2019-06-10T23:31:48.785Z,30.95
2019-06-10T23:34:05.118Z,26.93
2019-06-10T23:36:36.984Z,12.33
2019-06-10T23:39:06.458Z,17.20
2019-06-10T23:41:35.756Z,20.02
2019-06-10T23:44:05.093Z,20.90
2019-06-10T23:46:35.429Z,17.12
2019-06-10T23:49:04.851Z,17.27
2019-06-10T23:51:34.210Z,11.38
2019-06-10T23:54:06.055Z,16.85
2019-06-10T23:56:34.462Z,28.57
2019-06-10T23:59:04.803Z,11.28
